Time;durP1;ratioP1;P1;durP2;ratioP2;P2;SDS_P1;SDS_P2;PMS_P1;PMS_P2;Temp;Humidity;BMP_temperature;BMP_pressure;BME280_temperature;BME280_humidity;BME280_pressure;Samples;Min_cycle;Max_cycle;Signal;HPM_P1;HPM_P2
2022/05/01 00:01:05;;;;;;;15.73;14.10;;;;;;;-141.48;100.00;69781.59;5228903;28;20098;-80
2022/05/01 00:03:35;;;;;;;14.25;12.82;;;;;;;-141.48;100.00;69781.59;5226471;28;20025;-81
2022/05/01 00:06:07;;;;;;;14.80;13.30;;;;;;;-141.48;100.00;69781.59;5225999;28;20029;-81
2022/05/01 00:08:40;;;;;;;15.77;14.45;;;;;;;-141.48;100.00;69781.59;5226663;28;20025;-82
2022/05/01 00:11:12;;;;;;;14.50;13.18;;;;;;;-141.48;100.00;69781.59;5225762;28;20040;-81
2022/05/01 00:13:44;;;;;;;17.50;15.30;;;;;;;-141.48;100.00;69781.59;5225736;28;20221;-81
2022/05/01 00:16:14;;;;;;;15.05;13.77;;;;;;;-141.48;100.00;69781.59;5226152;28;20029;-81
2022/05/01 00:18:45;;;;;;;15.57;14.38;;;;;;;-141.48;100.00;69781.59;5244736;28;20030;-81
2022/05/01 00:21:16;;;;;;;14.93;13.68;;;;;;;-141.48;100.00;69781.59;5227161;28;20029;-79
2022/05/01 00:23:46;;;;;;;16.30;15.05;;;;;;;-141.48;100.00;69781.59;5226962;28;20506;-80
2022/05/01 00:26:17;;;;;;;16.20;15.13;;;;;;;-141.48;100.00;69781.59;5222535;28;20072;-81
2022/05/01 00:28:47;;;;;;;15.18;14.00;;;;;;;-141.48;100.00;69781.59;5237624;28;20076;-80
2022/05/01 00:31:19;;;;;;;17.17;15.75;;;;;;;-141.48;100.00;69781.59;5221632;28;20055;-80
2022/05/01 00:36:40;;;;;;;15.88;14.65;;;;;;;-141.48;100.00;69781.59;5218145;28;20048;-80
2022/05/01 00:39:10;;;;;;;17.50;15.95;;;;;;;-141.48;100.00;69781.59;5233710;28;20059;-80
2022/05/01 00:41:41;;;;;;;20.52;16.02;;;;;;;-141.48;100.00;69781.59;5218488;28;20089;-80
2022/05/01 00:44:16;;;;;;;17.10;15.90;;;;;;;-141.48;100.00;69781.59;5217471;28;20025;-80
2022/05/01 00:46:51;;;;;;;23.08;15.90;;;;;;;-141.48;100.00;69781.59;5219400;28;20025;-80
2022/05/01 00:49:25;;;;;;;16.38;15.15;;;;;;;-141.48;100.00;69781.59;5218328;28;20033;-80
2022/05/01 00:51:57;;;;;;;17.98;16.02;;;;;;;-141.48;100.00;69781.59;5225235;28;20029;-79
2022/05/01 00:54:30;;;;;;;19.95;18.35;;;;;;;-141.48;100.00;69781.59;5217282;28;20021;-80
2022/05/01 00:57:03;;;;;;;17.83;16.40;;;;;;;-141.48;100.00;69781.59;5232321;28;20315;-81
2022/05/01 00:59:35;;;;;;;19.02;17.25;;;;;;;-141.48;100.00;69781.59;5216996;28;20035;-79
2022/05/01 01:02:06;;;;;;;19.25;17.65;;;;;;;-141.48;100.00;69781.59;5216333;28;20052;-82
2022/05/01 01:04:37;;;;;;;17.98;16.65;;;;;;;-141.48;100.00;69781.59;5216321;28;20026;-81
2022/05/01 01:07:07;;;;;;;17.60;16.23;;;;;;;-141.48;100.00;69781.59;5216246;28;20072;-80
2022/05/01 01:09:39;;;;;;;19.27;17.58;;;;;;;-141.48;100.00;69781.59;5216995;28;20032;-81
2022/05/01 01:15:11;;;;;;;18.17;16.52;;;;;;;-141.48;100.00;69781.59;5216789;28;20041;-81
2022/05/01 01:17:46;;;;;;;20.67;19.05;;;;;;;-141.48;100.00;69781.59;5217423;28;20094;-81
2022/05/01 01:20:23;;;;;;;21.08;19.15;;;;;;;-141.48;100.00;69781.59;5221189;28;20029;-81
2022/05/01 01:22:58;;;;;;;22.45;20.40;;;;;;;-141.48;100.00;69781.59;5220624;28;20057;-80
2022/05/01 01:25:31;;;;;;;22.65;20.38;;;;;;;-141.48;100.00;69781.59;5221010;28;20025;-81
2022/05/01 01:28:05;;;;;;;20.98;18.48;;;;;;;-141.48;100.00;69781.59;5221751;28;20486;-81
2022/05/01 01:33:25;;;;;;;21.17;19.48;;;;;;;-141.48;100.00;69781.59;5220979;28;20041;-81
2022/05/01 01:35:59;;;;;;;21.25;19.42;;;;;;;-141.48;100.00;69781.59;5221058;28;20029;-81
2022/05/01 01:38:30;;;;;;;20.95;19.23;;;;;;;-141.48;100.00;69781.59;5221440;28;20048;-82
2022/05/01 01:41:08;;;;;;;20.73;18.85;;;;;;;-141.48;100.00;69781.59;5221332;28;20040;-82
2022/05/01 01:43:42;;;;;;;20.95;19.23;;;;;;;-141.48;100.00;69781.59;5236007;28;20029;-81
2022/05/01 01:46:12;;;;;;;20.05;18.40;;;;;;;-141.48;100.00;69781.59;5220578;28;20079;-82
2022/05/01 01:48:45;;;;;;;21.77;19.80;;;;;;;-141.48;100.00;69781.59;5219713;28;20033;-80
2022/05/01 01:51:15;;;;;;;21.83;19.98;;;;;;;-141.48;100.00;69781.59;5219603;28;20037;-81
2022/05/01 01:53:46;;;;;;;21.55;20.02;;;;;;;-141.48;100.00;69781.59;5234911;28;20056;-83
2022/05/01 01:56:17;;;;;;;26.65;19.80;;;;;;;-141.48;100.00;69781.59;5219695;28;20032;-79
2022/05/01 01:58:48;;;;;;;21.38;19.15;;;;;;;-141.48;100.00;69781.59;5219741;28;20026;-80
2022/05/01 02:01:18;;;;;;;22.75;20.63;;;;;;;-141.48;100.00;69781.59;5219677;28;20108;-81
2022/05/01 02:03:49;;;;;;;23.50;21.02;;;;;;;-141.48;100.00;69781.59;5218680;28;20021;-80
2022/05/01 02:06:19;;;;;;;18.83;17.13;;;;;;;-141.48;100.00;69781.59;5235218;28;20051;-81
2022/05/01 02:08:50;;;;;;;22.90;21.10;;;;;;;-141.48;100.00;69781.59;5219242;28;20022;-80
2022/05/01 02:11:20;;;;;;;21.75;19.92;;;;;;;-141.48;100.00;69781.59;5218922;28;20025;-79
2022/05/01 02:13:51;;;;;;;22.73;20.65;;;;;;;-141.48;100.00;69781.59;5218667;28;20049;-79
2022/05/01 02:16:21;;;;;;;21.83;19.88;;;;;;;-141.48;100.00;69781.59;5218938;28;20033;-81
2022/05/01 02:18:52;;;;;;;26.50;24.25;;;;;;;-141.48;100.00;69781.59;5219210;28;20017;-81
2022/05/01 02:21:35;;;;;;;20.88;18.92;;;;;;;-141.48;100.00;69781.59;5222820;28;20025;-80
2022/05/01 02:24:07;;;;;;;22.73;20.63;;;;;;;-141.48;100.00;69781.59;5217974;28;20049;-80
2022/05/01 02:26:38;;;;;;;25.02;22.55;;;;;;;-141.48;100.00;69781.59;5216928;28;20026;-79
2022/05/01 02:29:10;;;;;;;24.77;22.88;;;;;;;-141.48;100.00;69781.59;5216441;28;20049;-80
2022/05/01 02:31:42;;;;;;;24.88;22.80;;;;;;;-141.48;100.00;69781.59;5218497;28;20033;-80
2022/05/01 02:34:13;;;;;;;22.83;20.65;;;;;;;-141.48;100.00;69781.59;5219010;28;20018;-81
2022/05/01 02:36:43;;;;;;;24.80;22.63;;;;;;;-141.48;100.00;69781.59;5218863;28;20037;-81
2022/05/01 02:39:14;;;;;;;23.83;21.75;;;;;;;-141.48;100.00;69781.59;5234600;28;20292;-81
2022/05/01 02:41:44;;;;;;;25.33;23.05;;;;;;;-141.48;100.00;69781.59;5218768;28;20029;-80
2022/05/01 02:44:15;;;;;;;26.83;23.63;;;;;;;-141.48;100.00;69781.59;5218647;28;20033;-80
2022/05/01 02:46:46;;;;;;;25.33;22.95;;;;;;;-141.48;100.00;69781.59;5233823;28;20029;-80
2022/05/01 02:49:16;;;;;;;27.88;25.63;;;;;;;-141.48;100.00;69781.59;5217512;28;20022;-81
2022/05/01 02:51:47;;;;;;;29.67;27.17;;;;;;;-141.48;100.00;69781.59;5215990;23;20128;-57
2022/05/01 02:54:17;;;;;;;29.63;26.58;;;;;;;-141.48;100.00;69781.59;5184825;28;20040;-56
2022/05/01 02:56:51;;;;;;;29.77;27.17;;;;;;;-141.48;100.00;69781.59;5185212;28;20030;-59
2022/05/01 02:59:22;;;;;;;28.20;25.25;;;;;;;-141.48;100.00;69781.59;5186521;28;20108;-57
2022/05/01 03:01:54;;;;;;;32.28;29.40;;;;;;;-141.48;100.00;69781.59;5185209;28;20125;-56
2022/05/01 03:04:24;;;;;;;31.65;28.98;;;;;;;-141.48;100.00;69781.59;5184861;28;20445;-56
2022/05/01 03:06:56;;;;;;;32.55;29.90;;;;;;;-141.48;100.00;69781.59;5185030;28;20022;-57
2022/05/01 03:09:27;;;;;;;31.13;28.10;;;;;;;-141.48;100.00;69781.59;5185090;28;20034;-58
2022/05/01 03:11:57;;;;;;;30.38;27.80;;;;;;;-141.48;100.00;69781.59;5184921;28;20022;-56
2022/05/01 03:14:28;;;;;;;29.10;26.45;;;;;;;-141.48;100.00;69781.59;5184881;28;20470;-59
2022/05/01 03:16:58;;;;;;;31.17;28.13;;;;;;;-141.48;100.00;69781.59;5184962;28;20105;-57
2022/05/01 03:22:18;;;;;;;30.13;27.08;;;;;;;-141.48;100.00;69781.59;5186281;28;20038;-55
2022/05/01 03:24:51;;;;;;;30.30;27.58;;;;;;;-141.48;100.00;69781.59;5184719;28;20030;-57
2022/05/01 03:27:22;;;;;;;30.88;27.70;;;;;;;-141.48;100.00;69781.59;5184846;28;20033;-57
2022/05/01 03:32:43;;;;;;;30.55;27.95;;;;;;;-141.48;100.00;69781.59;5185980;28;20112;-55
2022/05/01 03:35:15;;;;;;;30.88;28.02;;;;;;;-141.48;100.00;69781.59;5184351;28;20030;-56
2022/05/01 03:37:45;;;;;;;27.08;24.88;;;;;;;-141.48;100.00;69781.59;5184262;28;20113;-58
2022/05/01 03:40:16;;;;;;;31.75;28.85;;;;;;;-141.48;100.00;69781.59;5184017;28;20121;-57
2022/05/01 03:42:47;;;;;;;29.05;26.52;;;;;;;-141.48;100.00;69781.59;5184029;28;20033;-58
2022/05/01 03:45:17;;;;;;;26.92;24.60;;;;;;;-141.48;100.00;69781.59;5183607;28;20115;-58
2022/05/01 03:47:48;;;;;;;28.67;26.10;;;;;;;-141.48;100.00;69781.59;5184065;28;20033;-58
2022/05/01 03:50:18;;;;;;;27.73;25.27;;;;;;;-141.48;100.00;69781.59;5183716;28;20107;-58
2022/05/01 03:52:49;;;;;;;31.13;27.92;;;;;;;-141.48;100.00;69781.59;5184397;28;20049;-58
2022/05/01 03:55:19;;;;;;;26.98;24.77;;;;;;;-141.48;100.00;69781.59;5183803;28;20025;-57
2022/05/01 03:57:50;;;;;;;28.95;26.50;;;;;;;-141.48;100.00;69781.59;5183660;28;20033;-57
2022/05/01 04:00:20;;;;;;;32.35;29.27;;;;;;;-141.48;100.00;69781.59;5183793;28;20458;-55
2022/05/01 04:02:52;;;;;;;30.02;27.38;;;;;;;-141.48;100.00;69781.59;5183761;28;20087;-57
2022/05/01 04:05:22;;;;;;;31.00;28.40;;;;;;;-141.48;100.00;69781.59;5183554;28;20022;-55
2022/05/01 04:07:53;;;;;;;30.52;27.90;;;;;;;-141.48;100.00;69781.59;5183246;28;20021;-57
2022/05/01 04:10:23;;;;;;;29.75;27.30;;;;;;;-141.48;100.00;69781.59;5183201;28;20375;-59
2022/05/01 04:12:54;;;;;;;32.25;29.38;;;;;;;-141.48;100.00;69781.59;5183063;28;20022;-55
2022/05/01 04:15:24;;;;;;;29.42;26.98;;;;;;;-141.48;100.00;69781.59;5182604;28;20449;-58
2022/05/01 04:17:55;;;;;;;32.58;29.30;;;;;;;-141.48;100.00;69781.59;5183105;28;20109;-57
2022/05/01 04:20:25;;;;;;;32.40;28.92;;;;;;;-141.48;100.00;69781.59;5183289;28;20033;-57
2022/05/01 04:22:56;;;;;;;29.35;26.85;;;;;;;-141.48;100.00;69781.59;5182947;28;20028;-56
2022/05/01 04:25:29;;;;;;;34.28;31.27;;;;;;;-141.48;100.00;69781.59;5182797;28;20476;-56
2022/05/01 04:28:01;;;;;;;31.50;28.10;;;;;;;-141.48;100.00;69781.59;5183020;28;20045;-56
2022/05/01 04:30:32;;;;;;;33.47;30.35;;;;;;;-141.48;100.00;69781.59;5182861;28;20092;-57
2022/05/01 04:33:12;;;;;;;32.42;29.05;;;;;;;-141.48;100.00;69781.59;5182679;28;20117;-57
2022/05/01 04:35:49;;;;;;;31.55;28.98;;;;;;;-141.48;100.00;69781.59;5182926;28;20037;-57
2022/05/01 04:38:25;;;;;;;28.15;25.38;;;;;;;-141.48;100.00;69781.59;5183115;28;20029;-58
2022/05/01 04:40:58;;;;;;;32.17;29.25;;;;;;;-141.48;100.00;69781.59;5182689;28;20482;-56
2022/05/01 04:43:31;;;;;;;31.50;29.08;;;;;;;-141.48;100.00;69781.59;5179978;28;20025;-56
2022/05/01 04:52:55;;;;;;;32.20;29.60;;;;;;;-141.48;100.00;69781.59;5225296;23;20121;-92
2022/05/01 04:55:25;;;;;;;31.50;28.67;;;;;;;-141.48;100.00;69781.59;5212715;28;20021;-91
2022/05/01 04:57:57;;;;;;;30.50;27.73;;;;;;;-141.48;100.00;69781.59;5203155;28;20025;-92
2022/05/01 05:00:28;;;;;;;32.05;28.88;;;;;;;-141.48;100.00;69781.59;5219284;28;20045;-92
2022/05/01 05:02:58;;;;;;;34.33;30.95;;;;;;;-141.48;100.00;69781.59;5219534;28;20032;-92
2022/05/01 05:05:31;;;;;;;36.50;33.35;;;;;;;-141.48;100.00;69781.59;5202227;28;20032;-90
2022/05/01 05:10:51;;;;;;;37.22;33.85;;;;;;;-141.48;100.00;69781.59;5221135;28;20056;-91
2022/05/01 05:13:24;;;;;;;34.28;31.40;;;;;;;-141.48;100.00;69781.59;5219553;28;20022;-90
2022/05/01 05:15:58;;;;;;;37.88;34.20;;;;;;;-141.48;100.00;69781.59;5201733;28;20053;-91
2022/05/01 05:18:28;;;;;;;36.55;33.08;;;;;;;-141.48;100.00;69781.59;5202820;28;20021;-91
2022/05/01 05:20:59;;;;;;;34.42;31.42;;;;;;;-141.48;100.00;69781.59;5203592;28;20040;-92
2022/05/01 05:23:29;;;;;;;36.22;33.38;;;;;;;-141.48;100.00;69781.59;5206213;28;20033;-92
2022/05/01 05:26:00;;;;;;;35.65;32.33;;;;;;;-141.48;100.00;69781.59;5229387;28;20103;-93
2022/05/01 05:28:42;;;;;;;36.80;32.97;;;;;;;-141.48;100.00;69781.59;5227953;28;20010;-94
2022/05/01 05:34:54;;;;;;;41.85;37.72;;;;;;;-141.48;100.00;69781.59;5233990;28;20063;-93
2022/05/01 05:38:07;;;;;;;;;;;;;;;;;;;;;
2022/05/01 05:40:52;;;;;;;37.15;33.45;;;;;;;-141.48;100.00;69781.59;5234625;28;20041;-93
2022/05/01 05:43:22;;;;;;;39.55;35.83;;;;;;;-141.48;100.00;69781.59;5225532;22;20049;-57
2022/05/01 05:45:53;;;;;;;36.35;32.97;;;;;;;-141.48;100.00;69781.59;5193564;28;20497;-57
2022/05/01 05:48:23;;;;;;;39.72;36.22;;;;;;;-141.48;100.00;69781.59;5172008;28;20100;-57
2022/05/01 05:50:54;;;;;;;40.25;37.03;;;;;;;-141.48;100.00;69781.59;5188312;28;20453;-58
2022/05/01 05:53:27;;;;;;;40.97;36.85;;;;;;;-141.48;100.00;69781.59;5187919;28;20029;-58
2022/05/01 05:55:58;;;;;;;40.00;36.40;;;;;;;-141.48;100.00;69781.59;5187566;28;20026;-58
2022/05/01 05:58:29;;;;;;;44.28;36.58;;;;;;;-141.48;100.00;69781.59;5171922;28;20025;-58
2022/05/01 06:00:59;;;;;;;38.00;34.75;;;;;;;-141.48;100.00;69781.59;5187919;28;20163;-58
2022/05/01 06:03:29;;;;;;;35.58;31.75;;;;;;;-141.48;100.00;69781.59;5186357;28;20088;-58
2022/05/01 06:06:00;;;;;;;40.05;35.95;;;;;;;-141.48;100.00;69781.59;5187841;28;20091;-57
2022/05/01 06:08:31;;;;;;;40.70;37.08;;;;;;;-141.48;100.00;69781.59;5187357;28;20125;-58
2022/05/01 06:11:01;;;;;;;42.90;39.13;;;;;;;-141.48;100.00;69781.59;5186788;28;20049;-57
2022/05/01 06:13:32;;;;;;;41.58;37.50;;;;;;;-141.48;100.00;69781.59;5186753;28;20037;-57
2022/05/01 06:16:05;;;;;;;39.75;36.10;;;;;;;-141.48;100.00;69781.59;5186635;28;20033;-58
2022/05/01 06:18:35;;;;;;;39.03;35.10;;;;;;;-141.48;100.00;69781.59;5170363;28;20026;-57
2022/05/01 06:21:06;;;;;;;38.22;34.28;;;;;;;-141.48;100.00;69781.59;5186094;28;20619;-57
2022/05/01 06:23:36;;;;;;;32.67;29.92;;;;;;;-141.48;100.00;69781.59;5169770;28;20081;-57
2022/05/01 06:26:15;;;;;;;40.00;36.42;;;;;;;-141.48;100.00;69781.59;5186214;28;20045;-57
2022/05/01 06:28:47;;;;;;;34.65;31.45;;;;;;;-141.48;100.00;69781.59;5186299;28;20479;-58
2022/05/01 06:31:17;;;;;;;33.70;30.80;;;;;;;-141.48;100.00;69781.59;5186288;28;20021;-58
2022/05/01 06:33:48;;;;;;;37.00;33.47;;;;;;;-141.48;100.00;69781.59;5169675;28;20026;-58
2022/05/01 06:36:18;;;;;;;34.75;31.80;;;;;;;-141.48;100.00;69781.59;5187035;28;20026;-59
2022/05/01 06:38:49;;;;;;;33.38;30.05;;;;;;;-141.48;100.00;69781.59;5171371;28;20262;-60
2022/05/01 06:41:19;;;;;;;34.30;30.65;;;;;;;-141.48;100.00;69781.59;5187037;28;20028;-59
2022/05/01 06:43:50;;;;;;;32.78;29.58;;;;;;;-141.48;100.00;69781.59;5170449;28;20025;-59
2022/05/01 06:46:20;;;;;;;35.10;31.88;;;;;;;-141.48;100.00;69781.59;5169881;28;20088;-58
2022/05/01 06:48:51;;;;;;;32.63;29.70;;;;;;;-141.48;100.00;69781.59;5169159;28;20105;-58
2022/05/01 06:51:21;;;;;;;32.03;28.98;;;;;;;-141.48;100.00;69781.59;5185860;28;20036;-57
2022/05/01 06:53:52;;;;;;;31.30;28.13;;;;;;;-141.48;100.00;69781.59;5169353;28;20025;-58
2022/05/01 06:56:22;;;;;;;28.05;25.42;;;;;;;-141.48;100.00;69781.59;5169825;28;20034;-57
2022/05/01 06:58:53;;;;;;;27.77;25.30;;;;;;;-141.48;100.00;69781.59;5169716;28;20022;-57
2022/05/01 07:01:23;;;;;;;29.23;26.35;;;;;;;-141.48;100.00;69781.59;5169500;28;20026;-57
2022/05/01 07:03:54;;;;;;;27.13;24.10;;;;;;;-141.48;100.00;69781.59;5169064;28;20022;-58
2022/05/01 07:06:24;;;;;;;24.48;22.35;;;;;;;-141.48;100.00;69781.59;5185642;28;20030;-58
2022/05/01 07:08:55;;;;;;;24.55;21.83;;;;;;;-141.48;100.00;69781.59;5169287;28;20565;-57
2022/05/01 07:11:25;;;;;;;23.23;21.23;;;;;;;-141.48;100.00;69781.59;5185385;28;20032;-58
2022/05/01 07:13:56;;;;;;;22.17;20.23;;;;;;;-141.48;100.00;69781.59;5184989;28;20052;-58
2022/05/01 07:16:26;;;;;;;21.02;19.02;;;;;;;-141.48;100.00;69781.59;5184453;28;20026;-58
2022/05/01 07:32:52;;;;;;;16.55;15.20;;;;;;;-141.48;100.00;69781.59;5205511;23;20050;-58
2022/05/01 07:35:23;;;;;;;13.65;12.43;;;;;;;-141.48;100.00;69781.59;5203242;28;20025;-58
2022/05/01 07:37:53;;;;;;;14.65;13.27;;;;;;;-141.48;100.00;69781.59;5205120;28;20153;-58
2022/05/01 07:40:24;;;;;;;15.05;13.82;;;;;;;-141.48;100.00;69781.59;5204996;28;20041;-58
2022/05/01 07:42:54;;;;;;;15.93;14.32;;;;;;;-141.48;100.00;69781.59;5204752;28;20026;-58
2022/05/01 07:45:25;;;;;;;19.35;14.48;;;;;;;-141.48;100.00;69781.59;5188373;28;20018;-58
2022/05/01 07:47:55;;;;;;;15.80;14.40;;;;;;;-141.48;100.00;69781.59;5187752;28;20037;-58
2022/05/01 07:50:27;;;;;;;14.40;13.18;;;;;;;-141.48;100.00;69781.59;5203551;28;20021;-58
2022/05/01 07:52:57;;;;;;;11.63;10.57;;;;;;;-141.48;100.00;69781.59;5187395;28;20087;-58
2022/05/01 07:55:28;;;;;;;13.75;12.57;;;;;;;-141.48;100.00;69781.59;5203590;28;20025;-58
2022/05/01 07:57:58;;;;;;;11.68;10.38;;;;;;;-141.48;100.00;69781.59;5203707;28;20120;-58
2022/05/01 08:00:29;;;;;;;12.52;11.30;;;;;;;-141.48;100.00;69781.59;5203662;28;20095;-58
2022/05/01 08:06:26;;;;;;;11.88;10.65;;;;;;;-141.48;100.00;69781.59;5662401;23;20088;-79
2022/05/01 08:08:57;;;;;;;9.52;8.75;;;;;;;-141.48;100.00;69781.59;5198240;28;20052;-80
2022/05/01 08:11:27;;;;;;;10.38;8.80;;;;;;;-141.48;100.00;69781.59;5207619;28;20116;-79
2022/05/01 08:13:58;;;;;;;10.68;9.75;;;;;;;-141.48;100.00;69781.59;5206918;28;20060;-81
2022/05/01 08:16:28;;;;;;;10.85;9.73;;;;;;;-141.48;100.00;69781.59;5207461;28;20064;-78
2022/05/01 08:21:47;;;;;;;9.50;8.80;;;;;;;-141.48;100.00;69781.59;5207683;28;20061;-80
2022/05/01 08:24:19;;;;;;;11.57;9.52;;;;;;;-141.48;100.00;69781.59;5207244;28;20769;-80
2022/05/01 08:26:50;;;;;;;8.93;8.32;;;;;;;-141.48;100.00;69781.59;5191486;28;20044;-80
2022/05/01 08:29:23;;;;;;;8.63;7.57;;;;;;;-141.48;100.00;69781.59;5212686;28;20074;-79
2022/05/01 08:31:54;;;;;;;10.32;9.65;;;;;;;-141.48;100.00;69781.59;5211654;28;20031;-80
2022/05/01 08:34:24;;;;;;;9.27;8.45;;;;;;;-141.48;100.00;69781.59;5211710;28;20108;-79
2022/05/01 08:36:55;;;;;;;11.25;10.27;;;;;;;-141.48;100.00;69781.59;5212461;28;20033;-80
2022/05/01 08:39:25;;;;;;;11.65;10.40;;;;;;;-141.48;100.00;69781.59;5211986;28;20029;-80
2022/05/01 08:41:56;;;;;;;10.52;9.73;;;;;;;-141.48;100.00;69781.59;5195078;28;20100;-80
2022/05/01 08:47:14;;;;;;;8.18;7.47;;;;;;;-141.48;100.00;69781.59;5196034;28;20068;-83
2022/05/01 08:49:46;;;;;;;10.07;9.07;;;;;;;-141.48;100.00;69781.59;5178595;28;20057;-82
2022/05/01 08:52:20;;;;;;;10.88;8.57;;;;;;;-141.48;100.00;69781.59;5195866;28;20431;-82
2022/05/01 08:54:52;;;;;;;9.02;8.40;;;;;;;-141.48;100.00;69781.59;5195901;28;20060;-83
2022/05/01 08:57:23;;;;;;;7.07;6.65;;;;;;;-141.48;100.00;69781.59;5178167;28;20030;-83
2022/05/01 08:59:54;;;;;;;6.35;5.95;;;;;;;-141.48;100.00;69781.59;5193435;28;20022;-82
2022/05/01 09:02:25;;;;;;;11.48;8.23;;;;;;;-141.48;100.00;69781.59;5175970;28;20064;-82
2022/05/01 09:04:58;;;;;;;6.50;5.93;;;;;;;-141.48;100.00;69781.59;5190281;28;20105;-82
2022/05/01 09:07:29;;;;;;;7.63;6.63;;;;;;;-141.48;100.00;69781.59;5191771;28;20026;-82
2022/05/01 09:09:59;;;;;;;7.43;6.90;;;;;;;-141.48;100.00;69781.59;5174165;28;20057;-80
2022/05/01 09:15:29;;;;;;;9.40;7.63;;;;;;;-141.48;100.00;69781.59;5191176;28;20099;-82
2022/05/01 09:18:06;;;;;;;15.85;9.68;;;;;;;-141.48;100.00;69781.59;5189903;28;20025;-83
2022/05/01 09:20:39;;;;;;;9.75;9.02;;;;;;;-141.48;100.00;69781.59;5190773;28;20061;-83
2022/05/01 09:23:09;;;;;;;8.70;7.28;;;;;;;-141.48;100.00;69781.59;5173674;28;20181;-82
2022/05/01 09:25:40;;;;;;;8.98;8.20;;;;;;;-141.48;100.00;69781.59;5207243;28;20045;-80
2022/05/01 09:28:22;;;;;;;9.43;8.75;;;;;;;-141.48;100.00;69781.59;5209278;28;20102;-81
2022/05/01 09:30:52;;;;;;;10.27;9.48;;;;;;;-141.48;100.00;69781.59;5209666;28;20056;-80
2022/05/01 09:33:23;;;;;;;12.13;10.23;;;;;;;-141.48;100.00;69781.59;5202389;28;20034;-80
2022/05/01 09:35:53;;;;;;;13.43;9.63;;;;;;;-141.48;100.00;69781.59;5206382;28;20030;-82
2022/05/01 09:38:26;;;;;;;11.98;11.05;;;;;;;-141.48;100.00;69781.59;5202466;28;20033;-81
2022/05/01 09:40:58;;;;;;;11.55;10.60;;;;;;;-141.48;100.00;69781.59;5195371;28;20037;-82
2022/05/01 09:43:45;;;;;;;10.18;9.20;;;;;;;-141.48;100.00;69781.59;5196947;28;20022;-83
2022/05/01 09:46:23;;;;;;;8.45;7.78;;;;;;;-141.48;100.00;69781.59;5180810;28;20096;-83
2022/05/01 09:49:12;;;;;;;10.18;9.38;;;;;;;-141.48;100.00;69781.59;5199554;28;20030;-83
2022/05/01 09:51:54;;;;;;;8.40;7.70;;;;;;;-141.48;100.00;69781.59;5183089;28;20049;-81
2022/05/01 09:54:26;;;;;;;10.65;9.65;;;;;;;-141.48;100.00;69781.59;5202975;28;20029;-82
2022/05/01 09:56:58;;;;;;;11.00;9.88;;;;;;;-141.48;100.00;69781.59;5206482;28;20282;-83
2022/05/01 09:59:29;;;;;;;10.48;9.63;;;;;;;-141.48;100.00;69781.59;5190530;28;20025;-81
2022/05/01 10:02:06;;;;;;;9.55;8.77;;;;;;;-141.48;100.00;69781.59;5207589;28;20094;-81
2022/05/01 10:04:37;;;;;;;9.35;8.63;;;;;;;-141.48;100.00;69781.59;5206262;28;20118;-81
2022/05/01 10:07:08;;;;;;;11.10;10.13;;;;;;;-141.48;100.00;69781.59;5205076;28;20434;-81
2022/05/01 10:09:39;;;;;;;12.05;7.43;;;;;;;-141.48;100.00;69781.59;5202064;28;20037;-82
2022/05/01 10:12:11;;;;;;;9.73;8.90;;;;;;;-141.48;100.00;69781.59;5206166;28;20052;-81
2022/05/01 10:14:43;;;;;;;8.43;7.55;;;;;;;-141.48;100.00;69781.59;5207664;28;20020;-82
2022/05/01 10:17:14;;;;;;;8.38;7.75;;;;;;;-141.48;100.00;69781.59;5207544;28;20026;-80
2022/05/01 10:19:46;;;;;;;7.60;7.10;;;;;;;-141.48;100.00;69781.59;5207316;28;20400;-80
2022/05/01 10:22:17;;;;;;;7.50;6.97;;;;;;;-141.48;100.00;69781.59;5203827;28;20024;-82
2022/05/01 10:24:48;;;;;;;7.93;7.22;;;;;;;-141.48;100.00;69781.59;5208469;28;20078;-81
2022/05/01 10:27:35;;;;;;;7.95;7.45;;;;;;;-141.48;100.00;69781.59;5211351;28;20014;-79
2022/05/01 10:33:29;;;;;;;7.63;6.97;;;;;;;-141.48;100.00;69781.59;5212005;28;20054;-79
2022/05/01 10:36:21;;;;;;;6.60;6.18;;;;;;;-141.48;100.00;69781.59;5208696;28;20181;-82
2022/05/01 10:39:01;;;;;;;7.43;6.82;;;;;;;-141.48;100.00;69781.59;5204327;28;20029;-81
2022/05/01 10:41:33;;;;;;;6.53;6.03;;;;;;;-141.48;100.00;69781.59;5200477;28;20033;-81
2022/05/01 10:44:04;;;;;;;7.30;6.82;;;;;;;-141.48;100.00;69781.59;5197490;28;20053;-80
2022/05/01 10:46:34;;;;;;;7.45;6.85;;;;;;;-141.48;100.00;69781.59;5198100;28;20595;-82
2022/05/01 10:49:05;;;;;;;8.95;7.15;;;;;;;-141.48;100.00;69781.59;5180502;28;20090;-83
2022/05/01 10:51:38;;;;;;;7.43;6.55;;;;;;;-141.48;100.00;69781.59;5198431;28;20033;-80
2022/05/01 10:54:18;;;;;;;8.15;7.50;;;;;;;-141.48;100.00;69781.59;5201281;28;20030;-79
2022/05/01 10:56:50;;;;;;;6.57;6.00;;;;;;;-141.48;100.00;69781.59;5199782;28;20075;-79
2022/05/01 10:59:30;;;;;;;7.57;6.88;;;;;;;-141.48;100.00;69781.59;5198932;28;20049;-81
2022/05/01 11:02:05;;;;;;;8.07;7.28;;;;;;;-141.48;100.00;69781.59;5198080;28;20033;-82
2022/05/01 11:04:40;;;;;;;9.23;7.05;;;;;;;-141.48;100.00;69781.59;5197139;28;20014;-81
2022/05/01 11:07:13;;;;;;;5.57;5.25;;;;;;;-141.48;100.00;69781.59;5193154;28;20079;-80
2022/05/01 11:09:49;;;;;;;9.50;6.43;;;;;;;-141.48;100.00;69781.59;5194242;28;20028;-80
2022/05/01 11:12:22;;;;;;;5.30;4.63;;;;;;;-141.48;100.00;69781.59;5196345;28;20022;-80
2022/05/01 11:14:54;;;;;;;6.18;5.30;;;;;;;-141.48;100.00;69781.59;5195711;28;20034;-81
2022/05/01 11:17:36;;;;;;;6.32;5.93;;;;;;;-141.48;100.00;69781.59;5194911;28;20034;-81
2022/05/01 11:20:14;;;;;;;6.75;5.95;;;;;;;-141.48;100.00;69781.59;5195814;28;20060;-82
2022/05/01 11:22:45;;;;;;;5.90;5.53;;;;;;;-141.48;100.00;69781.59;5197962;28;20536;-80
2022/05/01 11:25:30;;;;;;;7.10;6.60;;;;;;;-141.48;100.00;69781.59;5196718;28;20029;-81
2022/05/01 11:28:01;;;;;;;7.70;7.20;;;;;;;-141.48;100.00;69781.59;5198399;28;20022;-81
2022/05/01 11:30:31;;;;;;;6.78;6.03;;;;;;;-141.48;100.00;69781.59;5196321;28;20060;-81
2022/05/01 11:33:12;;;;;;;6.30;5.80;;;;;;;-141.48;100.00;69781.59;5198876;28;20105;-81
2022/05/01 11:35:57;;;;;;;7.55;6.85;;;;;;;-141.48;100.00;69781.59;5198694;28;20033;-79
2022/05/01 11:38:51;;;;;;;5.65;5.32;;;;;;;-141.48;100.00;69781.59;5198792;28;20041;-82
2022/05/01 11:41:42;;;;;;;11.38;6.72;;;;;;;-141.48;100.00;69781.59;5199018;28;20484;-81
2022/05/01 11:44:20;;;;;;;9.65;7.40;;;;;;;-141.48;100.00;69781.59;5198479;28;20032;-81
2022/05/01 11:46:55;;;;;;;7.82;6.75;;;;;;;-141.48;100.00;69781.59;5198372;28;20030;-79
2022/05/01 11:49:27;;;;;;;8.25;7.57;;;;;;;-141.48;100.00;69781.59;5198740;28;20022;-81
2022/05/01 11:51:58;;;;;;;6.97;6.50;;;;;;;-141.48;100.00;69781.59;5197020;28;20361;-81
2022/05/01 11:54:30;;;;;;;7.32;6.57;;;;;;;-141.48;100.00;69781.59;5197428;28;20160;-82
2022/05/01 12:02:39;;;;;;;8.67;7.40;;;;;;;-141.48;100.00;69781.59;5198999;28;20483;-81
2022/05/01 12:05:10;;;;;;;8.02;7.22;;;;;;;-141.48;100.00;69781.59;5197408;28;20136;-81
2022/05/01 12:07:41;;;;;;;7.40;6.78;;;;;;;-141.48;100.00;69781.59;5195514;28;20045;-82
2022/05/01 12:10:12;;;;;;;7.28;6.68;;;;;;;-141.48;100.00;69781.59;5194789;28;20026;-82
2022/05/01 12:12:42;;;;;;;7.47;6.78;;;;;;;-141.48;100.00;69781.59;5196454;28;20060;-80
2022/05/01 12:15:13;;;;;;;6.65;6.28;;;;;;;-141.48;100.00;69781.59;5194230;28;20492;-81
2022/05/01 12:17:43;;;;;;;8.15;7.65;;;;;;;-141.48;100.00;69781.59;5196311;28;20433;-82
2022/05/01 12:20:14;;;;;;;7.95;7.10;;;;;;;-141.48;100.00;69781.59;5195822;28;20037;-82
2022/05/01 12:22:44;;;;;;;8.20;7.32;;;;;;;-141.48;100.00;69781.59;5194302;28;20464;-81
2022/05/01 12:25:17;;;;;;;10.38;7.13;;;;;;;-141.48;100.00;69781.59;5196086;28;20077;-80